Time;durP1;ratioP1;P1;durP2;ratioP2;P2;SDS_P1;SDS_P2;PMS_P1;PMS_P2;Temp;Humidity;BMP_temperature;BMP_pressure;BME280_temperature;BME280_humidity;BME280_pressure;Samples;Min_cycle;Max_cycle;Signal;HPM_P1;HPM_P2
2022/08/13 00:00:21;;;;;;;6.75;3.75;;;19.80;99.90;;;;;;4993890;28;20077;-81
2022/08/13 00:02:47;;;;;;;8.10;3.80;;;19.80;99.90;;;;;;4992378;28;20038;-82
2022/08/13 00:05:13;;;;;;;6.43;4.10;;;19.80;99.90;;;;;;4969800;28;20025;-80
2022/08/13 00:07:39;;;;;;;7.50;3.50;;;19.70;99.90;;;;;;5020502;28;20057;-80
2022/08/13 00:10:11;;;;;;;6.60;3.85;;;19.60;99.90;;;;;;5001877;28;20050;-81
2022/08/13 00:12:56;;;;;;;5.32;3.70;;;19.60;99.90;;;;;;5019104;28;20576;-80
2022/08/13 00:15:33;;;;;;;6.38;3.97;;;19.60;99.90;;;;;;4983834;28;20116;-79
2022/08/13 00:18:03;;;;;;;6.78;3.88;;;19.60;99.90;;;;;;5002162;28;20140;-81
2022/08/13 00:20:38;;;;;;;6.23;3.50;;;19.50;99.90;;;;;;4995839;28;20691;-80
2022/08/13 00:23:09;;;;;;;7.60;3.60;;;19.50;99.90;;;;;;4983769;28;20121;-80
2022/08/13 00:25:36;;;;;;;7.15;4.20;;;19.40;99.90;;;;;;4983813;28;20073;-81
2022/08/13 00:28:04;;;;;;;8.65;4.20;;;19.30;99.90;;;;;;4934771;28;20053;-80
2022/08/13 00:30:33;;;;;;;6.68;4.07;;;19.30;99.90;;;;;;4967376;28;20049;-81
2022/08/13 00:33:07;;;;;;;7.93;4.03;;;19.30;99.90;;;;;;4962923;28;20502;-80
2022/08/13 00:35:36;;;;;;;5.10;3.70;;;19.20;99.90;;;;;;5005465;28;20050;-80
2022/08/13 00:38:05;;;;;;;6.60;3.63;;;19.20;99.90;;;;;;4932358;28;20046;-81
2022/08/13 00:40:31;;;;;;;6.30;3.90;;;19.20;99.90;;;;;;4983178;28;20533;-81
2022/08/13 00:43:02;;;;;;;6.90;4.40;;;19.20;99.90;;;;;;4980610;28;20944;-81
2022/08/13 00:45:30;;;;;;;6.45;4.43;;;19.20;99.90;;;;;;4984012;28;20057;-81
2022/08/13 00:50:42;;;;;;;5.75;4.35;;;19.00;99.90;;;;;;4965669;28;20517;-81
2022/08/13 00:53:18;;;;;;;6.90;4.80;;;19.00;99.90;;;;;;4984093;28;20847;-81
2022/08/13 00:55:48;;;;;;;7.35;4.45;;;19.00;99.90;;;;;;4997016;28;20049;-81
2022/08/13 00:58:16;;;;;;;8.38;4.13;;;18.90;99.90;;;;;;4983891;28;20794;-81
2022/08/13 01:00:47;;;;;;;6.43;4.20;;;18.90;99.90;;;;;;4964419;28;20049;-81
2022/08/13 01:03:15;;;;;;;7.60;4.13;;;18.90;99.90;;;;;;4967989;28;20045;-81
2022/08/13 01:05:43;;;;;;;6.40;3.60;;;18.90;99.90;;;;;;4980945;28;20058;-81
2022/08/13 01:08:10;;;;;;;6.13;3.55;;;18.90;99.90;;;;;;4985007;28;20072;-82
2022/08/13 01:10:38;;;;;;;9.82;3.92;;;18.90;99.90;;;;;;4963510;28;20107;-81
2022/08/13 01:13:07;;;;;;;6.85;3.53;;;18.90;99.90;;;;;;4981411;28;20145;-81
2022/08/13 01:15:34;;;;;;;6.03;3.63;;;18.90;99.90;;;;;;4966807;28;20049;-80
2022/08/13 01:18:01;;;;;;;6.38;3.28;;;18.90;99.90;;;;;;4979900;28;20076;-81
2022/08/13 01:20:30;;;;;;;5.18;3.25;;;18.90;99.90;;;;;;4951322;28;20129;-81
2022/08/13 01:22:56;;;;;;;5.68;4.10;;;18.90;99.90;;;;;;4964655;28;20681;-81
2022/08/13 01:25:25;;;;;;;6.28;3.60;;;18.90;99.90;;;;;;4979694;28;20066;-81
2022/08/13 01:27:52;;;;;;;7.30;3.65;;;18.90;99.90;;;;;;4960780;28;20054;-81
2022/08/13 01:30:20;;;;;;;5.78;3.67;;;18.80;99.90;;;;;;4983846;28;20577;-81
2022/08/13 01:32:47;;;;;;;6.10;3.78;;;18.80;99.90;;;;;;4987390;28;20056;-80
2022/08/13 01:35:16;;;;;;;5.35;3.58;;;18.80;99.90;;;;;;4981746;28;20049;-80
2022/08/13 01:37:43;;;;;;;6.45;4.03;;;18.70;99.90;;;;;;4980087;28;20054;-81
2022/08/13 01:40:11;;;;;;;6.00;4.05;;;18.80;99.90;;;;;;5009041;28;20049;-81
2022/08/13 01:42:43;;;;;;;8.93;4.05;;;18.70;99.90;;;;;;4967347;28;20052;-81
2022/08/13 01:45:11;;;;;;;6.55;3.75;;;18.70;99.90;;;;;;4982014;28;20088;-81
2022/08/13 01:50:32;;;;;;;9.43;3.85;;;18.60;99.90;;;;;;4974586;28;20056;-82
2022/08/13 01:53:05;;;;;;;5.63;3.80;;;18.50;99.90;;;;;;4984098;28;20042;-82
2022/08/13 01:55:38;;;;;;;5.45;3.58;;;18.50;99.90;;;;;;4990059;28;20481;-82
2022/08/13 01:58:42;;;;;;;5.20;4.15;;;18.40;99.90;;;;;;4967289;28;20082;-82
2022/08/13 02:01:27;;;;;;;6.57;3.70;;;18.40;99.90;;;;;;4991479;28;20103;-81
2022/08/13 02:03:56;;;;;;;7.75;3.75;;;18.40;99.90;;;;;;4955866;28;20741;-80
2022/08/13 02:09:24;;;;;;;9.25;4.40;;;18.30;99.90;;;;;;4994858;28;20111;-80
2022/08/13 02:11:50;;;;;;;6.85;3.80;;;18.20;99.90;;;;;;4970865;28;20152;-81
2022/08/13 02:14:22;;;;;;;8.10;4.00;;;18.20;99.90;;;;;;5004372;28;20077;-81
2022/08/13 02:16:49;;;;;;;8.73;4.03;;;18.20;99.90;;;;;;4989266;28;20092;-81
2022/08/13 02:19:15;;;;;;;6.13;3.90;;;18.20;99.90;;;;;;4986810;28;20149;-81
2022/08/13 02:21:44;;;;;;;7.32;3.92;;;18.20;99.90;;;;;;4952107;28;20038;-81
2022/08/13 02:24:13;;;;;;;8.23;3.67;;;18.10;99.90;;;;;;4988744;28;20115;-83
2022/08/13 02:26:42;;;;;;;7.40;4.55;;;18.10;99.90;;;;;;4973515;28;20136;-82
2022/08/13 02:29:09;;;;;;;7.20;3.95;;;18.00;99.90;;;;;;4984563;28;20474;-81
2022/08/13 02:31:43;;;;;;;6.57;4.05;;;18.00;99.90;;;;;;5005613;28;20153;-81
2022/08/13 02:34:11;;;;;;;6.20;3.90;;;18.00;99.90;;;;;;4968018;28;20778;-81
2022/08/13 02:36:40;;;;;;;6.72;4.28;;;18.00;99.90;;;;;;4982411;28;20920;-82
2022/08/13 02:39:09;;;;;;;7.10;3.80;;;17.90;99.90;;;;;;4984668;28;20493;-83
2022/08/13 02:41:39;;;;;;;8.90;4.90;;;18.00;99.90;;;;;;4988382;28;20042;-82
2022/08/13 02:44:07;;;;;;;5.55;3.88;;;17.90;99.90;;;;;;4968527;28;20550;-81
2022/08/13 02:46:33;;;;;;;6.15;3.85;;;17.90;99.90;;;;;;5002354;28;20060;-82
2022/08/13 02:49:03;;;;;;;6.68;4.30;;;17.90;99.90;;;;;;4973942;28;20116;-81
2022/08/13 02:51:31;;;;;;;9.60;4.13;;;17.90;99.90;;;;;;5004229;28;20050;-81
2022/08/13 02:54:00;;;;;;;6.22;4.13;;;17.90;99.90;;;;;;4965766;28;20042;-82
2022/08/13 02:56:27;;;;;;;7.38;3.97;;;17.90;99.90;;;;;;4986885;28;20058;-81
2022/08/13 02:58:56;;;;;;;6.05;3.67;;;17.80;99.90;;;;;;4996486;28;20631;-82
2022/08/13 03:01:25;;;;;;;7.22;3.90;;;17.80;99.90;;;;;;4983627;28;20191;-81
2022/08/13 03:03:56;;;;;;;6.05;4.18;;;17.80;99.90;;;;;;4992796;28;20065;-82
2022/08/13 03:06:28;;;;;;;4.32;3.60;;;17.80;99.90;;;;;;5001937;28;20805;-82
2022/08/13 03:08:54;;;;;;;8.45;4.35;;;17.70;99.90;;;;;;5002392;28;20050;-82
2022/08/13 03:11:20;;;;;;;7.63;4.07;;;17.70;99.90;;;;;;4966012;28;20097;-82
2022/08/13 03:14:12;;;;;;;7.47;4.18;;;17.70;99.90;;;;;;4999980;28;20050;-82
2022/08/13 03:16:54;;;;;;;7.70;4.03;;;17.70;99.90;;;;;;4984604;28;20061;-81
2022/08/13 03:19:21;;;;;;;7.28;4.32;;;17.70;99.90;;;;;;5001211;28;20081;-81
2022/08/13 03:21:49;;;;;;;8.13;4.53;;;17.60;99.90;;;;;;4996145;28;20107;-82
2022/08/13 03:24:18;;;;;;;8.00;4.30;;;17.50;99.90;;;;;;4977929;28;20049;-81
2022/08/13 03:26:45;;;;;;;7.28;4.35;;;17.50;99.90;;;;;;5001127;28;20057;-82
2022/08/13 03:29:11;;;;;;;9.40;4.70;;;17.50;99.90;;;;;;4999546;28;20061;-82
2022/08/13 03:31:50;;;;;;;6.00;4.43;;;17.50;99.90;;;;;;4986453;28;20490;-82
2022/08/13 03:34:20;;;;;;;7.72;4.97;;;17.50;99.90;;;;;;4969697;28;20046;-82
2022/08/13 03:36:59;;;;;;;7.00;4.32;;;17.40;99.90;;;;;;4938308;28;20038;-82
2022/08/13 03:39:29;;;;;;;10.70;4.85;;;17.40;99.90;;;;;;4968743;28;20104;-82
2022/08/13 03:42:09;;;;;;;6.50;4.20;;;17.40;99.90;;;;;;4985720;28;20494;-83
2022/08/13 03:44:35;;;;;;;7.72;4.75;;;17.40;99.90;;;;;;5003682;28;20076;-81
2022/08/13 03:47:04;;;;;;;6.60;4.38;;;17.30;99.90;;;;;;5001868;28;20660;-81
2022/08/13 03:49:37;;;;;;;6.68;4.80;;;17.30;99.90;;;;;;4974173;28;20486;-81
2022/08/13 03:52:03;;;;;;;8.48;4.72;;;17.30;99.90;;;;;;4968369;28;20401;-82
2022/08/13 03:54:32;;;;;;;6.78;4.40;;;17.20;99.90;;;;;;4952463;28;20065;-83
2022/08/13 03:57:00;;;;;;;8.02;4.68;;;17.20;99.90;;;;;;4952470;28;20406;-82
2022/08/13 03:59:26;;;;;;;10.77;4.70;;;17.10;99.90;;;;;;4985178;28;20099;-82
2022/08/13 04:01:54;;;;;;;7.05;4.32;;;17.10;99.90;;;;;;4934487;28;20065;-82
2022/08/13 04:04:20;;;;;;;7.60;4.32;;;17.10;99.90;;;;;;4971786;28;20137;-82
2022/08/13 04:06:47;;;;;;;9.55;5.32;;;17.00;99.90;;;;;;4985398;28;20049;-82
2022/08/13 04:09:46;;;;;;;7.18;4.38;;;17.10;99.90;;;;;;4950078;28;20041;-82
2022/08/13 04:12:27;;;;;;;9.40;4.43;;;17.10;99.90;;;;;;4999654;28;20702;-82
2022/08/13 04:14:54;;;;;;;9.85;4.28;;;17.00;99.90;;;;;;4995216;28;20050;-82
2022/08/13 04:17:33;;;;;;;8.25;4.60;;;17.00;99.90;;;;;;4978493;28;20046;-81
2022/08/13 04:20:09;;;;;;;8.90;4.97;;;17.00;99.90;;;;;;4964492;28;20066;-80
2022/08/13 04:23:14;;;;;;;6.43;4.60;;;16.90;99.90;;;;;;4986971;28;20049;-83
2022/08/13 04:25:44;;;;;;;9.85;4.63;;;16.90;99.90;;;;;;4960790;28;20911;-82
2022/08/13 04:28:15;;;;;;;7.13;4.22;;;17.00;99.90;;;;;;4981365;28;20108;-83
2022/08/13 04:30:42;;;;;;;8.70;4.40;;;17.00;99.90;;;;;;4969471;28;20085;-82
2022/08/13 04:33:11;;;;;;;9.30;4.30;;;16.90;99.90;;;;;;4953064;28;20135;-82
2022/08/13 04:35:38;;;;;;;7.53;4.70;;;16.90;99.90;;;;;;4970055;28;20054;-82
2022/08/13 04:38:08;;;;;;;7.18;4.45;;;16.90;99.90;;;;;;4988021;28;20308;-81
2022/08/13 04:40:38;;;;;;;8.32;4.53;;;16.90;99.90;;;;;;4984721;28;20073;-83
2022/08/13 04:43:17;;;;;;;6.13;4.28;;;16.90;99.90;;;;;;5001080;28;20077;-81
2022/08/13 04:45:46;;;;;;;9.25;4.68;;;16.90;99.90;;;;;;4993120;28;20092;-82
2022/08/13 04:48:13;;;;;;;7.22;5.03;;;16.90;99.90;;;;;;5000736;28;20041;-83
2022/08/13 04:50:47;;;;;;;6.65;4.13;;;16.90;99.90;;;;;;4999945;28;20050;-82
2022/08/13 04:53:37;;;;;;;6.25;4.63;;;16.90;99.90;;;;;;4982820;28;20737;-81
2022/08/13 04:56:04;;;;;;;9.25;4.80;;;17.00;99.90;;;;;;4976347;28;20042;-82
2022/08/13 04:58:35;;;;;;;7.82;4.82;;;17.00;99.90;;;;;;4966424;28;20054;-82
2022/08/13 05:01:09;;;;;;;7.22;4.78;;;17.10;99.90;;;;;;4983628;28;20766;-82
2022/08/13 05:03:47;;;;;;;5.90;3.97;;;17.10;99.90;;;;;;4955700;28;20042;-82
2022/08/13 05:06:19;;;;;;;7.57;4.30;;;17.20;99.90;;;;;;4969162;28;20128;-82
2022/08/13 05:08:49;;;;;;;6.75;4.35;;;17.20;99.90;;;;;;4974941;28;20060;-82
2022/08/13 05:11:18;;;;;;;8.73;4.55;;;17.30;99.90;;;;;;4986294;28;20081;-81
2022/08/13 05:13:48;;;;;;;6.07;4.30;;;17.30;99.90;;;;;;4979784;28;20054;-82
2022/08/13 05:16:17;;;;;;;5.63;4.30;;;17.30;99.90;;;;;;4982115;28;20089;-82
2022/08/13 05:18:50;;;;;;;6.43;3.88;;;17.40;99.90;;;;;;4982643;28;20147;-82
2022/08/13 05:21:29;;;;;;;6.20;4.40;;;17.40;99.90;;;;;;4955180;28;20116;-82
2022/08/13 05:23:55;;;;;;;5.63;3.75;;;17.60;99.90;;;;;;4960802;28;20773;-82
2022/08/13 05:26:31;;;;;;;6.00;3.53;;;17.80;99.90;;;;;;4929619;28;20054;-82
2022/08/13 05:29:04;;;;;;;9.13;4.55;;;18.10;99.90;;;;;;4991613;28;20053;-81
2022/08/13 05:31:39;;;;;;;7.90;3.90;;;18.40;99.90;;;;;;4967944;28;20141;-83
2022/08/13 05:34:25;;;;;;;8.57;3.60;;;18.60;99.90;;;;;;5011826;28;20512;-81
2022/08/13 05:36:52;;;;;;;6.82;3.78;;;18.90;99.90;;;;;;5002530;28;20606;-82
2022/08/13 05:39:33;;;;;;;7.60;3.85;;;19.00;99.90;;;;;;4970429;28;20041;-80
2022/08/13 05:41:59;;;;;;;5.78;3.40;;;19.20;99.90;;;;;;4971652;28;20774;-81
2022/08/13 05:44:33;;;;;;;7.32;3.45;;;19.30;99.90;;;;;;4994821;28;20069;-82
2022/08/13 05:46:59;;;;;;;7.03;2.80;;;19.50;99.90;;;;;;4988447;28;20493;-81
2022/08/13 05:49:25;;;;;;;6.22;3.15;;;19.60;99.90;;;;;;4956064;28;20081;-82
2022/08/13 05:51:51;;;;;;;6.07;3.60;;;19.80;99.90;;;;;;4955202;28;20049;-82
2022/08/13 05:54:19;;;;;;;5.75;3.05;;;19.90;99.90;;;;;;4954271;28;20049;-82
2022/08/13 05:56:45;;;;;;;3.55;2.83;;;20.10;99.90;;;;;;4957493;28;20058;-82
2022/08/13 06:04:44;;;;;;;6.70;3.47;;;20.80;99.90;;;;;;4985960;28;20073;-82
2022/08/13 06:07:18;;;;;;;5.75;2.85;;;20.80;99.90;;;;;;4985597;28;20053;-82
2022/08/13 06:09:45;;;;;;;5.00;2.70;;;21.00;99.90;;;;;;4985318;28;20057;-82
2022/08/13 06:12:14;;;;;;;4.43;2.50;;;21.20;99.90;;;;;;4965318;28;20081;-82
2022/08/13 06:14:41;;;;;;;4.40;2.42;;;21.50;99.90;;;;;;4985684;28;20065;-82
2022/08/13 06:17:07;;;;;;;5.10;2.70;;;21.70;99.90;;;;;;4984116;28;20628;-82
2022/08/13 06:19:33;;;;;;;5.40;2.22;;;21.80;99.90;;;;;;4983791;28;20050;-81
2022/08/13 06:22:04;;;;;;;4.13;2.47;;;21.80;99.90;;;;;;4985235;28;20034;-81
2022/08/13 06:24:35;;;;;;;;;;;22.10;99.90;;;;;;4971632;28;20124;-82
2022/08/13 06:27:05;;;;;;;4.70;2.17;;;22.20;99.90;;;;;;4974806;28;19929;-81
2022/08/13 06:29:36;;;;;;;5.53;2.08;;;22.40;99.90;;;;;;4960956;28;20086;-81
2022/08/13 06:32:08;;;;;;;3.42;2.17;;;22.60;99.90;;;;;;4955239;28;20049;-80
2022/08/13 06:34:36;;;;;;;7.40;2.38;;;22.90;99.90;;;;;;4968535;28;20065;-82
2022/08/13 06:37:04;;;;;;;4.55;2.15;;;23.00;99.90;;;;;;4967888;28;20045;-82
2022/08/13 06:40:05;;;;;;;4.15;2.15;;;23.30;99.90;;;;;;4981288;28;20362;-81
2022/08/13 06:42:33;;;;;;;3.28;2.08;;;23.40;99.90;;;;;;4994306;28;20073;-82
2022/08/13 06:45:05;;;;;;;5.25;1.92;;;23.60;99.90;;;;;;4983448;28;20050;-82
2022/08/13 06:47:33;;;;;;;3.35;1.90;;;23.70;99.90;;;;;;4954636;28;20072;-82
2022/08/13 06:50:09;;;;;;;4.30;2.00;;;23.80;99.50;;;;;;4937084;28;20057;-82
2022/08/13 06:52:37;;;;;;;7.82;2.00;;;23.90;98.80;;;;;;4997046;28;20061;-82
2022/08/13 06:55:06;;;;;;;3.30;1.80;;;24.10;98.50;;;;;;4967761;28;20057;-82
2022/08/13 06:57:36;;;;;;;4.50;2.10;;;24.30;98.50;;;;;;4949135;28;20157;-82
2022/08/13 07:00:10;;;;;;;5.43;1.75;;;24.60;97.10;;;;;;4950111;28;20100;-81
2022/08/13 07:02:40;;;;;;;6.57;1.77;;;24.80;96.70;;;;;;4932572;28;20058;-80
2022/08/13 07:05:07;;;;;;;3.50;1.80;;;25.10;96.50;;;;;;4982374;28;20053;-81
2022/08/13 07:07:33;;;;;;;3.22;1.92;;;25.30;94.70;;;;;;4949502;28;20046;-81
2022/08/13 07:10:00;;;;;;;3.50;1.70;;;25.50;95.20;;;;;;4945322;28;20050;-81
2022/08/13 07:12:26;;;;;;;7.20;2.00;;;25.60;94.20;;;;;;4969916;28;20478;-80
2022/08/13 07:14:52;;;;;;;4.88;1.70;;;25.90;94.40;;;;;;4962406;28;20093;-80
2022/08/13 07:17:23;;;;;;;4.78;1.75;;;26.20;93.70;;;;;;4960022;28;20038;-80
2022/08/13 07:19:49;;;;;;;4.55;1.90;;;26.40;92.30;;;;;;4984090;28;20039;-80
2022/08/13 07:22:15;;;;;;;2.47;1.52;;;26.80;91.20;;;;;;4972158;28;20047;-80
2022/08/13 07:24:49;;;;;;;4.05;1.38;;;26.90;90.30;;;;;;4980593;28;20100;-80
2022/08/13 07:27:16;;;;;;;2.45;1.50;;;27.30;88.30;;;;;;4963627;28;20042;-79
2022/08/13 07:29:42;;;;;;;4.07;1.50;;;27.70;86.50;;;;;;4961783;28;20473;-78
2022/08/13 07:32:08;;;;;;;3.28;1.48;;;28.10;86.00;;;;;;4962559;28;20051;-79
2022/08/13 07:34:36;;;;;;;3.13;1.40;;;28.30;82.30;;;;;;4980090;28;20285;-79
2022/08/13 07:37:03;;;;;;;4.03;1.27;;;28.60;78.50;;;;;;4960527;28;20055;-78
2022/08/13 07:39:30;;;;;;;2.72;1.23;;;28.60;75.20;;;;;;4981172;28;20089;-79
2022/08/13 07:41:57;;;;;;;2.72;1.35;;;28.90;72.90;;;;;;4977544;28;20159;-79
2022/08/13 07:44:24;;;;;;;4.22;1.55;;;28.50;72.60;;;;;;4978919;28;20562;-79
2022/08/13 07:46:52;;;;;;;4.95;1.50;;;29.00;72.30;;;;;;4995423;28;20917;-79
2022/08/13 07:49:20;;;;;;;4.00;1.45;;;29.00;67.40;;;;;;4963653;28;20053;-80
2022/08/13 07:51:47;;;;;;;4.00;1.17;;;28.90;67.50;;;;;;4963405;28;20064;-79
2022/08/13 07:54:15;;;;;;;4.43;1.27;;;29.10;68.50;;;;;;4974652;28;21158;-80
2022/08/13 07:56:47;;;;;;;4.25;1.30;;;29.40;68.00;;;;;;4977028;28;20054;-80
2022/08/13 07:59:25;;;;;;;4.35;1.30;;;29.50;67.00;;;;;;4994225;28;20050;-81
2022/08/13 08:02:01;;;;;;;4.10;1.20;;;29.70;64.80;;;;;;4967307;28;20050;-79
2022/08/13 08:04:37;;;;;;;3.72;1.30;;;30.10;64.40;;;;;;4992076;28;20411;-80
2022/08/13 08:07:25;;;;;;;2.90;1.20;;;30.30;61.80;;;;;;4979283;28;20049;-79
2022/08/13 08:09:52;;;;;;;;;;;30.30;62.00;;;;;;4989393;28;20082;-79
2022/08/13 08:12:37;;;;;;;2.90;1.33;;;30.40;60.00;;;;;;4982853;28;19926;-80
2022/08/13 08:15:11;;;;;;;1.98;1.00;;;30.50;60.30;;;;;;4978933;28;20050;-80
2022/08/13 08:17:38;;;;;;;3.13;1.15;;;30.40;58.60;;;;;;4961426;28;20114;-80
2022/08/13 08:20:05;;;;;;;3.42;1.33;;;30.60;58.80;;;;;;4973918;28;21661;-80
2022/08/13 08:22:32;;;;;;;4.82;1.20;;;30.70;58.60;;;;;;4962291;28;20046;-80
2022/08/13 08:24:59;;;;;;;2.85;1.20;;;31.20;57.90;;;;;;4963086;28;20046;-80
2022/08/13 08:27:25;;;;;;;3.97;1.15;;;31.10;57.10;;;;;;4973659;28;20046;-80
2022/08/13 08:29:53;;;;;;;3.50;1.00;;;31.40;55.10;;;;;;4978714;28;20137;-80
2022/08/13 08:32:19;;;;;;;2.03;1.10;;;31.50;55.40;;;;;;4973748;28;20142;-80
2022/08/13 08:34:50;;;;;;;3.28;0.93;;;31.30;55.10;;;;;;4960613;28;20054;-80
2022/08/13 08:42:55;;;;;;;2.35;1.00;;;32.10;52.80;;;;;;4978010;28;20502;-80
2022/08/13 08:45:24;;;;;;;2.35;1.10;;;32.20;50.60;;;;;;4994815;28;20193;-80
2022/08/13 08:47:52;;;;;;;4.95;1.20;;;32.10;49.70;;;;;;4962810;28;20046;-80
2022/08/13 08:50:22;;;;;;;1.40;0.90;;;32.40;48.80;;;;;;4994087;28;20618;-79
2022/08/13 08:53:23;;;;;;;;;;;32.60;49.00;;;;;;4946333;28;20049;-80
2022/08/13 08:55:42;;;;;;;4.40;1.08;;;32.70;49.70;;;;;;4984506;28;20313;-79
2022/08/13 08:58:11;;;;;;;2.10;1.02;;;32.80;49.20;;;;;;4961848;28;20049;-79
2022/08/13 09:00:39;;;;;;;2.35;1.13;;;32.60;47.80;;;;;;4994024;28;20134;-79
2022/08/13 09:03:09;;;;;;;1.52;1.08;;;32.70;47.90;;;;;;4977827;28;20101;-79
2022/08/13 09:05:36;;;;;;;3.60;1.27;;;32.80;47.60;;;;;;4977373;28;20886;-78
2022/08/13 09:08:06;;;;;;;4.25;0.95;;;33.10;46.90;;;;;;4962910;28;20050;-78
2022/08/13 09:10:35;;;;;;;1.55;0.98;;;33.20;48.40;;;;;;4988675;28;20054;-78
2022/08/13 09:13:03;;;;;;;3.55;1.10;;;33.50;47.10;;;;;;4988297;28;20062;-79
2022/08/13 09:15:34;;;;;;;4.22;1.20;;;33.60;46.50;;;;;;4979924;28;20796;-79
2022/08/13 09:18:02;;;;;;;3.63;1.20;;;33.80;45.70;;;;;;4957259;28;20045;-79
2022/08/13 09:20:30;;;;;;;3.90;1.40;;;33.70;45.00;;;;;;4935212;28;20050;-78
2022/08/13 09:23:04;;;;;;;2.33;1.10;;;33.90;44.20;;;;;;4957967;28;20827;-78
2022/08/13 09:25:30;;;;;;;3.42;1.00;;;33.40;43.00;;;;;;4978194;28;20588;-78
2022/08/13 09:27:57;;;;;;;3.80;1.10;;;33.60;43.50;;;;;;4988485;28;20406;-78
2022/08/13 09:30:23;;;;;;;1.92;1.08;;;33.30;43.80;;;;;;4980153;28;20057;-78
2022/08/13 09:32:53;;;;;;;3.65;1.05;;;33.40;43.80;;;;;;4972966;28;20101;-78
2022/08/13 09:35:19;;;;;;;3.03;1.27;;;33.50;43.50;;;;;;4945922;28;20046;-78
2022/08/13 09:37:48;;;;;;;5.90;1.38;;;33.70;44.40;;;;;;4975665;28;20043;-78
2022/08/13 09:40:17;;;;;;;3.67;0.95;;;33.90;44.40;;;;;;4991115;28;20053;-78
2022/08/13 09:43:01;;;;;;;3.80;1.17;;;34.00;43.30;;;;;;4962909;28;20046;-79
2022/08/13 09:45:28;;;;;;;4.35;1.27;;;33.90;42.10;;;;;;4977942;28;20078;-78
2022/08/13 09:48:02;;;;;;;6.03;1.52;;;34.30;42.10;;;;;;4997807;28;20065;-77
2022/08/13 09:50:28;;;;;;;1.88;1.15;;;34.70;42.20;;;;;;4945861;28;20050;-77
2022/08/13 09:52:56;;;;;;;2.53;0.90;;;34.70;41.40;;;;;;4997444;28;20128;-77
2022/08/13 09:55:25;;;;;;;2.55;1.02;;;34.70;41.40;;;;;;4987305;28;20054;-77
2022/08/13 09:57:55;;;;;;;3.83;1.07;;;34.50;41.00;;;;;;4995045;28;20431;-78
2022/08/13 10:00:23;;;;;;;2.83;1.10;;;34.70;41.10;;;;;;4975852;28;20142;-77
2022/08/13 10:02:52;;;;;;;3.05;1.10;;;34.40;40.70;;;;;;4945742;28;20069;-77
2022/08/13 10:05:18;;;;;;;2.08;1.10;;;34.70;41.20;;;;;;4971497;28;20525;-77
2022/08/13 10:07:46;;;;;;;3.40;0.98;;;34.70;40.60;;;;;;4949220;28;20137;-77
2022/08/13 10:10:13;;;;;;;2.42;0.95;;;34.80;40.10;;;;;;4991229;28;20046;-77
2022/08/13 10:12:41;;;;;;;3.63;0.80;;;34.80;39.70;;;;;;4994517;28;20410;-77
2022/08/13 10:15:12;;;;;;;1.73;1.08;;;35.10;40.10;;;;;;4948816;28;20087;-77
2022/08/13 10:17:56;;;;;;;2.10;1.10;;;35.20;39.10;;;;;;4977494;28;20046;-77
2022/08/13 10:20:25;;;;;;;1.85;0.90;;;35.30;39.60;;;;;;5006010;28;20058;-77
2022/08/13 10:22:53;;;;;;;1.50;0.98;;;35.20;39.00;;;;;;4948539;28;20141;-77
2022/08/13 10:25:20;;;;;;;5.75;1.13;;;35.10;39.10;;;;;;4977816;28;20125;-77
2022/08/13 10:27:49;;;;;;;2.55;1.00;;;35.40;38.50;;;;;;4975246;28;20558;-78
2022/08/13 10:30:18;;;;;;;1.73;0.93;;;35.30;39.10;;;;;;4948035;28;20042;-77
2022/08/13 10:32:46;;;;;;;2.00;0.93;;;35.20;38.70;;;;;;4989975;28;20066;-77
2022/08/13 10:35:13;;;;;;;2.28;1.10;;;35.20;38.80;;;;;;4968193;28;20050;-77
2022/08/13 10:37:43;;;;;;;4.90;1.10;;;35.20;38.10;;;;;;4989091;28;20043;-77
2022/08/13 10:40:13;;;;;;;2.08;0.80;;;35.70;39.10;;;;;;4968285;28;20050;-77
2022/08/13 10:42:39;;;;;;;1.60;0.88;;;35.70;38.40;;;;;;4978653;28;20052;-77
2022/08/13 10:45:05;;;;;;;3.00;1.10;;;36.00;38.70;;;;;;4965230;28;20042;-77
2022/08/13 10:47:32;;;;;;;3.47;1.10;;;35.70;38.00;;;;;;4970832;28;20141;-77
2022/08/13 10:49:59;;;;;;;2.80;1.02;;;35.90;38.50;;;;;;4965006;28;20082;-77
2022/08/13 10:52:26;;;;;;;2.63;1.10;;;36.00;37.30;;;;;;4974986;28;20137;-77
2022/08/13 10:54:53;;;;;;;3.60;1.00;;;35.70;37.50;;;;;;4935933;28;20050;-77
2022/08/13 10:57:19;;;;;;;2.15;1.05;;;35.60;37.10;;;;;;4958011;28;20046;-77
2022/08/13 10:59:45;;;;;;;3.28;1.33;;;35.70;37.60;;;;;;4950099;28;20038;-77
2022/08/13 11:02:12;;;;;;;4.20;1.10;;;35.80;37.80;;;;;;4967860;28;20070;-76
2022/08/13 11:04:38;;;;;;;1.40;0.90;;;35.90;37.40;;;;;;4975863;28;20043;-77
2022/08/13 11:07:08;;;;;;;2.42;1.17;;;36.00;37.80;;;;;;4989598;28;20548;-77
2022/08/13 11:09:36;;;;;;;1.60;1.00;;;36.20;38.20;;;;;;4994574;28;20613;-77
2022/08/13 11:12:02;;;;;;;4.75;1.20;;;36.60;38.70;;;;;;4983432;28;20149;-77
2022/08/13 11:14:29;;;;;;;1.65;0.98;;;36.70;37.30;;;;;;4959760;28;20050;-77
2022/08/13 11:16:58;;;;;;;4.60;1.30;;;36.90;37.70;;;;;;4980380;28;20046;-77
2022/08/13 11:19:28;;;;;;;3.50;1.08;;;37.00;37.20;;;;;;4965668;28;20100;-77
2022/08/13 11:21:54;;;;;;;2.67;1.00;;;36.60;35.50;;;;;;4964776;28;20042;-77
2022/08/13 11:24:20;;;;;;;3.45;1.20;;;36.70;35.90;;;;;;4986970;28;20042;-77
2022/08/13 11:26:47;;;;;;;6.30;1.20;;;36.70;36.50;;;;;;4965663;28;20454;-77
2022/08/13 11:29:16;;;;;;;2.70;1.30;;;36.70;35.80;;;;;;4966902;28;20133;-76
2022/08/13 11:31:43;;;;;;;2.15;1.02;;;36.80;35.10;;;;;;4990788;28;20044;-77
2022/08/13 11:34:09;;;;;;;2.75;1.20;;;36.30;35.10;;;;;;4963301;28;20042;-77
2022/08/13 11:36:35;;;;;;;3.40;0.90;;;36.40;35.70;;;;;;4980134;28;20046;-77
2022/08/13 11:39:01;;;;;;;1.48;1.10;;;36.70;36.00;;;;;;4947698;28;20050;-77
2022/08/13 11:41:28;;;;;;;1.98;1.10;;;36.70;35.40;;;;;;4980555;28;20807;-76
2022/08/13 11:43:54;;;;;;;2.13;1.00;;;36.70;35.60;;;;;;5013470;28;20050;-76
2022/08/13 11:46:21;;;;;;;2.45;1.20;;;36.60;35.50;;;;;;4993733;28;20057;-76
2022/08/13 11:48:49;;;;;;;1.83;0.90;;;36.40;34.80;;;;;;4965737;28;20120;-77
2022/08/13 11:51:15;;;;;;;3.45;1.35;;;36.20;35.20;;;;;;4952848;28;20053;-77
2022/08/13 11:53:41;;;;;;;3.38;1.13;;;36.10;35.50;;;;;;4996316;28;20415;-77
2022/08/13 11:56:07;;;;;;;4.00;1.25;;;36.40;35.90;;;;;;5002601;28;20125;-78
2022/08/13 11:58:34;;;;;;;3.83;1.02;;;36.50;35.00;;;;;;4981883;28;20488;-76
2022/08/13 12:01:00;;;;;;;2.10;1.00;;;36.30;35.20;;;;;;4976617;28;20027;-77
2022/08/13 12:03:26;;;;;;;3.72;1.35;;;36.10;34.90;;;;;;4960723;28;20069;-77
2022/08/13 12:05:53;;;;;;;2.05;1.10;;;36.10;35.30;;;;;;5001601;28;20046;-77
2022/08/13 12:08:20;;;;;;;4.28;1.25;;;36.20;35.40;;;;;;4986865;28;20125;-77
2022/08/13 12:10:47;;;;;;;2.88;1.80;;;36.60;35.60;;;;;;4966643;28;20487;-77
2022/08/13 12:13:14;;;;;;;2.58;1.15;;;36.20;35.20;;;;;;4987755;28;20054;-77
2022/08/13 12:15:41;;;;;;;2.45;0.90;;;36.00;35.00;;;;;;4952571;28;20046;-76
2022/08/13 12:18:11;;;;;;;3.45;1.30;;;35.60;35.60;;;;;;4953933;28;20053;-76
2022/08/13 12:20:37;;;;;;;1.95;1.17;;;35.10;35.40;;;;;;4961831;28;20038;-76
2022/08/13 12:23:03;;;;;;;2.50;1.27;;;35.10;35.70;;;;;;4971970;28;20046;-76
2022/08/13 12:25:31;;;;;;;3.22;1.30;;;35.20;36.90;;;;;;4956308;28;20074;-77
2022/08/13 12:28:20;;;;;;;2.35;1.10;;;35.90;36.60;;;;;;4994494;28;20042;-77
2022/08/13 12:30:49;;;;;;;2.45;1.20;;;36.20;35.20;;;;;;4983853;28;20057;-77
2022/08/13 12:33:16;;;;;;;2.90;1.20;;;36.40;35.60;;;;;;4976681;28;20125;-77
2022/08/13 12:35:43;;;;;;;3.67;1.45;;;36.60;35.30;;;;;;4960644;28;20084;-77
2022/08/13 12:38:14;;;;;;;2.65;1.10;;;37.00;34.90;;;;;;4974812;28;20046;-77
2022/08/13 12:40:43;;;;;;;2.30;1.10;;;37.00;34.30;;;;;;4991259;28;20050;-77
2022/08/13 12:43:09;;;;;;;4.45;1.17;;;37.00;34.70;;;;;;4979055;28;20780;-76
2022/08/13 12:45:37;;;;;;;2.25;1.30;;;37.00;34.70;;;;;;4961642;28;20057;-77
2022/08/13 12:48:08;;;;;;;2.40;1.02;;;37.10;34.60;;;;;;4953708;28;20408;-77
2022/08/13 12:50:36;;;;;;;2.03;1.10;;;37.40;34.90;;;;;;4978172;28;20082;-77
2022/08/13 12:53:03;;;;;;;2.63;1.23;;;37.10;35.00;;;;;;4979946;28;20050;-77
2022/08/13 12:55:29;;;;;;;4.50;1.20;;;37.40;34.30;;;;;;4974612;28;20145;-77
2022/08/13 12:57:55;;;;;;;2.60;1.20;;;37.70;34.80;;;;;;4993468;28;20502;-77
2022/08/13 13:00:22;;;;;;;4.55;1.42;;;37.90;34.00;;;;;;4958953;28;20835;-77
2022/08/13 13:02:48;;;;;;;3.13;1.05;;;38.30;34.50;;;;;;4946091;28;20046;-77
2022/08/13 13:05:15;;;;;;;1.58;1.20;;;37.80;33.90;;;;;;4991423;28;20101;-77
2022/08/13 13:07:43;;;;;;;2.25;1.05;;;38.20;34.80;;;;;;4928229;28;20093;-77
2022/08/13 13:10:09;;;;;;;3.75;1.20;;;38.20;33.20;;;;;;4962203;28;20754;-77
2022/08/13 13:12:35;;;;;;;2.80;1.10;;;38.20;33.70;;;;;;4976975;28;20124;-77
2022/08/13 13:15:01;;;;;;;3.80;1.20;;;38.50;33.50;;;;;;4968908;28;20085;-77
2022/08/13 13:17:31;;;;;;;3.42;1.20;;;38.40;33.40;;;;;;4962165;28;20133;-77
2022/08/13 13:20:00;;;;;;;2.75;1.10;;;38.70;33.20;;;;;;4962123;28;20046;-76